sensor_id;sensor_type;location;lat;lon;timestamp;P1;durP1;ratioP1;P2;durP2;ratioP2
20170;SDS011;10245;51.344;6.620;2024-01-30T00:01:18;15.82;;;10.15;;
20170;SDS011;10245;51.344;6.620;2024-01-30T00:03:41;16.20;;;10.40;;
20170;SDS011;10245;51.344;6.620;2024-01-30T00:06:05;14.85;;;10.98;;
20170;SDS011;10245;51.344;6.620;2024-01-30T00:08:29;15.98;;;9.88;;
20170;SDS011;10245;51.344;6.620;2024-01-30T00:10:52;17.05;;;11.15;;
20170;SDS011;10245;51.344;6.620;2024-01-30T00:13:16;16.25;;;10.85;;
20170;SDS011;10245;51.344;6.620;2024-01-30T00:15:41;15.73;;;11.38;;
20170;SDS011;10245;51.344;6.620;2024-01-30T00:18:06;14.43;;;10.60;;
20170;SDS011;10245;51.344;6.620;2024-01-30T00:20:30;15.30;;;10.68;;
20170;SDS011;10245;51.344;6.620;2024-01-30T00:22:54;15.23;;;10.43;;
20170;SDS011;10245;51.344;6.620;2024-01-30T00:25:17;16.83;;;11.20;;
20170;SDS011;10245;51.344;6.620;2024-01-30T00:27:41;15.85;;;11.00;;
20170;SDS011;10245;51.344;6.620;2024-01-30T00:30:04;18.02;;;11.00;;
20170;SDS011;10245;51.344;6.620;2024-01-30T00:32:29;16.70;;;11.38;;
20170;SDS011;10245;51.344;6.620;2024-01-30T00:34:54;15.07;;;10.73;;
20170;SDS011;10245;51.344;6.620;2024-01-30T00:37:17;15.13;;;10.40;;
20170;SDS011;10245;51.344;6.620;2024-01-30T00:39:41;20.85;;;11.23;;
20170;SDS011;10245;51.344;6.620;2024-01-30T00:42:04;15.75;;;10.93;;
20170;SDS011;10245;51.344;6.620;2024-01-30T00:44:27;16.92;;;12.50;;
20170;SDS011;10245;51.344;6.620;2024-01-30T00:46:51;14.65;;;10.38;;
20170;SDS011;10245;51.344;6.620;2024-01-30T00:49:14;14.13;;;11.13;;
20170;SDS011;10245;51.344;6.620;2024-01-30T00:51:39;20.25;;;11.70;;
20170;SDS011;10245;51.344;6.620;2024-01-30T00:54:02;14.38;;;11.20;;
20170;SDS011;10245;51.344;6.620;2024-01-30T00:56:27;17.48;;;11.95;;
20170;SDS011;10245;51.344;6.620;2024-01-30T00:58:51;15.30;;;11.20;;
20170;SDS011;10245;51.344;6.620;2024-01-30T01:01:14;18.63;;;11.93;;
20170;SDS011;10245;51.344;6.620;2024-01-30T01:03:37;19.80;;;12.70;;
20170;SDS011;10245;51.344;6.620;2024-01-30T01:06:02;16.17;;;11.68;;
20170;SDS011;10245;51.344;6.620;2024-01-30T01:08:28;15.25;;;11.57;;
20170;SDS011;10245;51.344;6.620;2024-01-30T01:10:51;16.52;;;12.18;;
20170;SDS011;10245;51.344;6.620;2024-01-30T01:13:15;21.13;;;11.93;;
20170;SDS011;10245;51.344;6.620;2024-01-30T01:15:38;17.60;;;12.27;;
20170;SDS011;10245;51.344;6.620;2024-01-30T01:18:01;18.20;;;12.10;;
20170;SDS011;10245;51.344;6.620;2024-01-30T01:20:25;16.17;;;12.60;;
20170;SDS011;10245;51.344;6.620;2024-01-30T01:22:49;17.85;;;12.40;;
20170;SDS011;10245;51.344;6.620;2024-01-30T01:25:15;17.77;;;11.95;;
20170;SDS011;10245;51.344;6.620;2024-01-30T01:27:39;16.67;;;11.85;;
20170;SDS011;10245;51.344;6.620;2024-01-30T01:30:04;15.55;;;11.95;;
20170;SDS011;10245;51.344;6.620;2024-01-30T01:32:30;18.20;;;11.90;;
20170;SDS011;10245;51.344;6.620;2024-01-30T01:34:53;16.58;;;11.77;;
20170;SDS011;10245;51.344;6.620;2024-01-30T01:37:16;17.40;;;13.07;;
20170;SDS011;10245;51.344;6.620;2024-01-30T01:39:40;17.17;;;12.82;;
20170;SDS011;10245;51.344;6.620;2024-01-30T01:42:05;15.85;;;12.18;;
20170;SDS011;10245;51.344;6.620;2024-01-30T01:44:29;17.77;;;12.68;;
20170;SDS011;10245;51.344;6.620;2024-01-30T01:46:52;16.55;;;11.95;;
20170;SDS011;10245;51.344;6.620;2024-01-30T01:49:17;17.77;;;12.65;;
20170;SDS011;10245;51.344;6.620;2024-01-30T01:51:41;16.63;;;12.30;;
20170;SDS011;10245;51.344;6.620;2024-01-30T01:54:06;17.45;;;12.73;;
20170;SDS011;10245;51.344;6.620;2024-01-30T01:56:30;17.00;;;12.55;;
20170;SDS011;10245;51.344;6.620;2024-01-30T01:58:59;16.83;;;12.80;;
20170;SDS011;10245;51.344;6.620;2024-01-30T02:01:27;17.67;;;12.80;;
20170;SDS011;10245;51.344;6.620;2024-01-30T02:03:52;16.77;;;12.40;;
20170;SDS011;10245;51.344;6.620;2024-01-30T02:06:16;19.48;;;12.80;;
20170;SDS011;10245;51.344;6.620;2024-01-30T02:08:41;19.40;;;13.07;;
20170;SDS011;10245;51.344;6.620;2024-01-30T02:11:04;20.17;;;13.02;;
20170;SDS011;10245;51.344;6.620;2024-01-30T02:13:28;19.25;;;13.18;;
20170;SDS011;10245;51.344;6.620;2024-01-30T02:15:52;20.77;;;13.35;;
20170;SDS011;10245;51.344;6.620;2024-01-30T02:18:16;17.55;;;12.73;;
20170;SDS011;10245;51.344;6.620;2024-01-30T02:20:39;16.75;;;12.90;;
20170;SDS011;10245;51.344;6.620;2024-01-30T02:23:04;17.27;;;12.18;;
20170;SDS011;10245;51.344;6.620;2024-01-30T02:25:32;20.10;;;12.60;;
20170;SDS011;10245;51.344;6.620;2024-01-30T02:28:06;16.67;;;12.55;;
20170;SDS011;10245;51.344;6.620;2024-01-30T02:30:29;19.38;;;12.60;;
20170;SDS011;10245;51.344;6.620;2024-01-30T02:32:52;18.73;;;12.27;;
20170;SDS011;10245;51.344;6.620;2024-01-30T02:35:16;19.25;;;13.15;;
20170;SDS011;10245;51.344;6.620;2024-01-30T02:37:39;17.10;;;12.30;;
20170;SDS011;10245;51.344;6.620;2024-01-30T02:40:04;16.85;;;13.50;;
20170;SDS011;10245;51.344;6.620;2024-01-30T02:42:30;17.27;;;13.13;;
20170;SDS011;10245;51.344;6.620;2024-01-30T02:44:53;19.35;;;13.25;;
20170;SDS011;10245;51.344;6.620;2024-01-30T02:47:16;21.02;;;13.73;;
20170;SDS011;10245;51.344;6.620;2024-01-30T02:49:44;21.13;;;12.93;;
20170;SDS011;10245;51.344;6.620;2024-01-30T02:52:07;16.88;;;12.50;;
20170;SDS011;10245;51.344;6.620;2024-01-30T02:54:31;17.20;;;12.32;;
20170;SDS011;10245;51.344;6.620;2024-01-30T02:56:55;19.58;;;13.48;;
20170;SDS011;10245;51.344;6.620;2024-01-30T02:59:19;17.77;;;12.52;;
20170;SDS011;10245;51.344;6.620;2024-01-30T03:01:42;17.80;;;13.10;;
20170;SDS011;10245;51.344;6.620;2024-01-30T03:04:06;22.92;;;14.48;;
20170;SDS011;10245;51.344;6.620;2024-01-30T03:06:30;19.92;;;13.63;;
20170;SDS011;10245;51.344;6.620;2024-01-30T03:08:53;15.48;;;12.55;;
20170;SDS011;10245;51.344;6.620;2024-01-30T03:11:16;16.65;;;12.43;;
20170;SDS011;10245;51.344;6.620;2024-01-30T03:13:41;18.35;;;12.77;;
20170;SDS011;10245;51.344;6.620;2024-01-30T03:16:05;19.13;;;12.65;;
20170;SDS011;10245;51.344;6.620;2024-01-30T03:18:29;19.52;;;12.43;;
20170;SDS011;10245;51.344;6.620;2024-01-30T03:20:52;17.17;;;11.82;;
20170;SDS011;10245;51.344;6.620;2024-01-30T03:23:15;15.73;;;11.75;;
20170;SDS011;10245;51.344;6.620;2024-01-30T03:25:39;19.17;;;12.73;;
20170;SDS011;10245;51.344;6.620;2024-01-30T03:28:03;18.10;;;12.38;;
20170;SDS011;10245;51.344;6.620;2024-01-30T03:30:29;16.05;;;12.15;;
20170;SDS011;10245;51.344;6.620;2024-01-30T03:32:53;19.08;;;13.07;;
20170;SDS011;10245;51.344;6.620;2024-01-30T03:35:18;16.85;;;12.60;;
20170;SDS011;10245;51.344;6.620;2024-01-30T03:37:42;16.92;;;11.68;;
20170;SDS011;10245;51.344;6.620;2024-01-30T03:40:06;17.70;;;12.52;;
20170;SDS011;10245;51.344;6.620;2024-01-30T03:42:31;15.88;;;11.38;;
20170;SDS011;10245;51.344;6.620;2024-01-30T03:44:54;16.88;;;12.45;;
20170;SDS011;10245;51.344;6.620;2024-01-30T03:47:21;16.38;;;12.35;;
20170;SDS011;10245;51.344;6.620;2024-01-30T03:49:44;16.58;;;12.30;;
20170;SDS011;10245;51.344;6.620;2024-01-30T03:52:08;18.17;;;12.60;;
20170;SDS011;10245;51.344;6.620;2024-01-30T03:54:32;15.48;;;11.23;;
20170;SDS011;10245;51.344;6.620;2024-01-30T03:56:55;15.98;;;11.88;;
20170;SDS011;10245;51.344;6.620;2024-01-30T03:59:18;17.25;;;12.07;;
20170;SDS011;10245;51.344;6.620;2024-01-30T04:01:46;16.15;;;11.20;;
20170;SDS011;10245;51.344;6.620;2024-01-30T04:04:11;18.90;;;12.27;;
20170;SDS011;10245;51.344;6.620;2024-01-30T04:06:34;15.93;;;11.68;;
20170;SDS011;10245;51.344;6.620;2024-01-30T04:08:59;16.58;;;12.35;;
20170;SDS011;10245;51.344;6.620;2024-01-30T04:11:22;20.73;;;12.73;;
20170;SDS011;10245;51.344;6.620;2024-01-30T04:13:45;18.17;;;12.05;;
20170;SDS011;10245;51.344;6.620;2024-01-30T04:16:18;17.48;;;12.32;;
20170;SDS011;10245;51.344;6.620;2024-01-30T04:18:44;18.38;;;12.10;;
20170;SDS011;10245;51.344;6.620;2024-01-30T04:21:09;15.43;;;11.70;;
20170;SDS011;10245;51.344;6.620;2024-01-30T04:23:32;17.48;;;12.63;;
20170;SDS011;10245;51.344;6.620;2024-01-30T04:25:56;16.55;;;12.35;;
20170;SDS011;10245;51.344;6.620;2024-01-30T04:28:19;18.70;;;12.43;;
20170;SDS011;10245;51.344;6.620;2024-01-30T04:30:42;17.10;;;12.52;;
20170;SDS011;10245;51.344;6.620;2024-01-30T04:33:05;17.58;;;11.95;;
20170;SDS011;10245;51.344;6.620;2024-01-30T04:35:29;21.67;;;12.63;;
20170;SDS011;10245;51.344;6.620;2024-01-30T04:37:54;17.75;;;12.00;;
20170;SDS011;10245;51.344;6.620;2024-01-30T04:40:18;17.95;;;13.40;;
20170;SDS011;10245;51.344;6.620;2024-01-30T04:42:41;19.08;;;12.88;;
20170;SDS011;10245;51.344;6.620;2024-01-30T04:45:05;18.67;;;13.00;;
20170;SDS011;10245;51.344;6.620;2024-01-30T04:47:29;16.55;;;12.65;;
20170;SDS011;10245;51.344;6.620;2024-01-30T04:49:52;18.75;;;12.80;;
20170;SDS011;10245;51.344;6.620;2024-01-30T04:52:16;17.70;;;13.52;;
20170;SDS011;10245;51.344;6.620;2024-01-30T04:54:41;16.77;;;12.55;;
20170;SDS011;10245;51.344;6.620;2024-01-30T04:57:04;23.00;;;12.95;;
20170;SDS011;10245;51.344;6.620;2024-01-30T04:59:30;21.17;;;13.95;;
20170;SDS011;10245;51.344;6.620;2024-01-30T05:01:54;20.48;;;12.43;;
20170;SDS011;10245;51.344;6.620;2024-01-30T05:04:18;20.85;;;13.32;;
20170;SDS011;10245;51.344;6.620;2024-01-30T05:06:42;18.67;;;12.75;;
20170;SDS011;10245;51.344;6.620;2024-01-30T05:09:06;20.23;;;12.30;;
20170;SDS011;10245;51.344;6.620;2024-01-30T05:11:32;24.20;;;12.60;;
20170;SDS011;10245;51.344;6.620;2024-01-30T05:14:00;19.52;;;12.98;;
20170;SDS011;10245;51.344;6.620;2024-01-30T05:16:24;16.70;;;12.25;;
20170;SDS011;10245;51.344;6.620;2024-01-30T05:18:47;17.50;;;12.75;;
20170;SDS011;10245;51.344;6.620;2024-01-30T05:21:10;17.02;;;12.95;;
20170;SDS011;10245;51.344;6.620;2024-01-30T05:23:34;20.15;;;12.70;;
20170;SDS011;10245;51.344;6.620;2024-01-30T05:25:57;20.20;;;12.18;;
20170;SDS011;10245;51.344;6.620;2024-01-30T05:28:23;15.73;;;11.93;;
20170;SDS011;10245;51.344;6.620;2024-01-30T05:30:48;18.85;;;11.93;;
20170;SDS011;10245;51.344;6.620;2024-01-30T05:33:11;15.70;;;11.18;;
20170;SDS011;10245;51.344;6.620;2024-01-30T05:35:34;17.10;;;12.57;;
20170;SDS011;10245;51.344;6.620;2024-01-30T05:37:58;18.52;;;12.15;;
20170;SDS011;10245;51.344;6.620;2024-01-30T05:40:21;15.35;;;11.38;;
20170;SDS011;10245;51.344;6.620;2024-01-30T05:42:45;17.85;;;12.50;;
20170;SDS011;10245;51.344;6.620;2024-01-30T05:45:10;17.02;;;11.88;;
20170;SDS011;10245;51.344;6.620;2024-01-30T05:47:34;15.15;;;11.57;;
20170;SDS011;10245;51.344;6.620;2024-01-30T05:49:57;16.10;;;11.93;;
20170;SDS011;10245;51.344;6.620;2024-01-30T05:52:20;14.98;;;11.35;;
20170;SDS011;10245;51.344;6.620;2024-01-30T05:54:44;16.95;;;11.48;;
20170;SDS011;10245;51.344;6.620;2024-01-30T05:57:07;18.90;;;11.75;;
20170;SDS011;10245;51.344;6.620;2024-01-30T05:59:31;19.02;;;11.75;;
20170;SDS011;10245;51.344;6.620;2024-01-30T06:01:58;16.30;;;12.43;;
20170;SDS011;10245;51.344;6.620;2024-01-30T06:04:22;20.85;;;12.40;;
20170;SDS011;10245;51.344;6.620;2024-01-30T06:06:47;18.10;;;12.45;;
20170;SDS011;10245;51.344;6.620;2024-01-30T06:09:10;18.15;;;11.85;;
20170;SDS011;10245;51.344;6.620;2024-01-30T06:11:35;16.08;;;11.13;;
20170;SDS011;10245;51.344;6.620;2024-01-30T06:13:58;17.77;;;11.90;;
20170;SDS011;10245;51.344;6.620;2024-01-30T06:16:22;14.32;;;11.82;;
20170;SDS011;10245;51.344;6.620;2024-01-30T06:18:46;15.70;;;12.02;;
20170;SDS011;10245;51.344;6.620;2024-01-30T06:21:11;15.48;;;11.60;;
20170;SDS011;10245;51.344;6.620;2024-01-30T06:23:34;19.17;;;12.30;;
20170;SDS011;10245;51.344;6.620;2024-01-30T06:25:57;15.32;;;11.88;;
20170;SDS011;10245;51.344;6.620;2024-01-30T06:28:21;17.33;;;12.15;;
20170;SDS011;10245;51.344;6.620;2024-01-30T06:30:44;17.67;;;11.70;;
20170;SDS011;10245;51.344;6.620;2024-01-30T06:33:08;19.30;;;11.00;;
20170;SDS011;10245;51.344;6.620;2024-01-30T06:35:36;17.25;;;12.55;;
20170;SDS011;10245;51.344;6.620;2024-01-30T06:38:05;17.33;;;14.07;;
20170;SDS011;10245;51.344;6.620;2024-01-30T06:40:28;17.13;;;11.45;;
20170;SDS011;10245;51.344;6.620;2024-01-30T06:42:52;16.15;;;12.05;;
20170;SDS011;10245;51.344;6.620;2024-01-30T06:45:15;16.58;;;11.70;;
20170;SDS011;10245;51.344;6.620;2024-01-30T06:47:38;14.43;;;11.50;;
20170;SDS011;10245;51.344;6.620;2024-01-30T06:50:02;18.83;;;12.80;;
20170;SDS011;10245;51.344;6.620;2024-01-30T06:52:28;17.83;;;12.13;;
20170;SDS011;10245;51.344;6.620;2024-01-30T06:54:52;15.48;;;11.52;;
20170;SDS011;10245;51.344;6.620;2024-01-30T06:57:17;16.70;;;10.95;;
20170;SDS011;10245;51.344;6.620;2024-01-30T06:59:40;17.63;;;12.48;;
20170;SDS011;10245;51.344;6.620;2024-01-30T07:02:05;17.95;;;12.32;;
20170;SDS011;10245;51.344;6.620;2024-01-30T07:04:29;19.25;;;12.32;;
20170;SDS011;10245;51.344;6.620;2024-01-30T07:06:53;16.85;;;11.70;;
20170;SDS011;10245;51.344;6.620;2024-01-30T07:09:18;15.63;;;12.25;;
20170;SDS011;10245;51.344;6.620;2024-01-30T07:11:41;19.83;;;11.35;;
20170;SDS011;10245;51.344;6.620;2024-01-30T07:14:04;16.15;;;12.40;;
20170;SDS011;10245;51.344;6.620;2024-01-30T07:16:28;20.33;;;12.00;;
20170;SDS011;10245;51.344;6.620;2024-01-30T07:18:51;16.48;;;11.55;;
20170;SDS011;10245;51.344;6.620;2024-01-30T07:21:14;17.05;;;11.93;;
20170;SDS011;10245;51.344;6.620;2024-01-30T07:23:37;14.65;;;11.32;;
20170;SDS011;10245;51.344;6.620;2024-01-30T07:26:02;16.70;;;11.65;;
20170;SDS011;10245;51.344;6.620;2024-01-30T07:28:26;17.38;;;11.75;;
20170;SDS011;10245;51.344;6.620;2024-01-30T07:30:49;16.25;;;11.35;;
20170;SDS011;10245;51.344;6.620;2024-01-30T07:33:13;18.10;;;12.60;;
20170;SDS011;10245;51.344;6.620;2024-01-30T07:35:36;18.08;;;11.23;;
20170;SDS011;10245;51.344;6.620;2024-01-30T07:38:00;17.33;;;11.70;;
20170;SDS011;10245;51.344;6.620;2024-01-30T07:40:23;15.10;;;11.68;;
20170;SDS011;10245;51.344;6.620;2024-01-30T07:42:49;15.05;;;11.30;;
20170;SDS011;10245;51.344;6.620;2024-01-30T07:45:13;17.13;;;11.35;;
20170;SDS011;10245;51.344;6.620;2024-01-30T07:47:36;16.35;;;11.95;;
20170;SDS011;10245;51.344;6.620;2024-01-30T07:49:59;18.23;;;11.35;;
20170;SDS011;10245;51.344;6.620;2024-01-30T07:52:23;17.08;;;12.23;;
20170;SDS011;10245;51.344;6.620;2024-01-30T07:54:46;18.02;;;12.00;;
20170;SDS011;10245;51.344;6.620;2024-01-30T07:57:09;16.67;;;11.90;;
20170;SDS011;10245;51.344;6.620;2024-01-30T07:59:34;18.10;;;12.00;;
20170;SDS011;10245;51.344;6.620;2024-01-30T08:01:57;18.33;;;12.40;;
20170;SDS011;10245;51.344;6.620;2024-01-30T08:04:21;15.93;;;11.93;;
20170;SDS011;10245;51.344;6.620;2024-01-30T08:06:44;15.73;;;11.05;;
20170;SDS011;10245;51.344;6.620;2024-01-30T08:09:08;20.05;;;12.25;;
20170;SDS011;10245;51.344;6.620;2024-01-30T08:11:31;15.60;;;11.27;;
20170;SDS011;10245;51.344;6.620;2024-01-30T08:13:54;16.55;;;11.48;;
20170;SDS011;10245;51.344;6.620;2024-01-30T08:16:19;15.52;;;11.35;;
20170;SDS011;10245;51.344;6.620;2024-01-30T08:18:42;23.70;;;11.98;;
20170;SDS011;10245;51.344;6.620;2024-01-30T08:21:06;16.10;;;11.75;;
20170;SDS011;10245;51.344;6.620;2024-01-30T08:23:29;17.80;;;11.98;;
20170;SDS011;10245;51.344;6.620;2024-01-30T08:25:53;18.70;;;12.30;;
20170;SDS011;10245;51.344;6.620;2024-01-30T08:28:17;18.08;;;11.35;;
20170;SDS011;10245;51.344;6.620;2024-01-30T08:30:42;19.23;;;11.88;;
20170;SDS011;10245;51.344;6.620;2024-01-30T08:33:06;17.10;;;10.93;;
20170;SDS011;10245;51.344;6.620;2024-01-30T08:35:30;16.85;;;10.82;;
20170;SDS011;10245;51.344;6.620;2024-01-30T08:37:55;15.77;;;10.98;;
20170;SDS011;10245;51.344;6.620;2024-01-30T08:40:19;17.15;;;12.00;;
20170;SDS011;10245;51.344;6.620;2024-01-30T08:42:42;17.58;;;11.25;;
20170;SDS011;10245;51.344;6.620;2024-01-30T08:45:06;14.68;;;11.43;;
20170;SDS011;10245;51.344;6.620;2024-01-30T08:47:30;17.33;;;11.65;;
20170;SDS011;10245;51.344;6.620;2024-01-30T08:49:56;19.15;;;11.50;;
20170;SDS011;10245;51.344;6.620;2024-01-30T08:52:19;19.17;;;11.65;;
20170;SDS011;10245;51.344;6.620;2024-01-30T08:54:42;14.73;;;11.15;;
20170;SDS011;10245;51.344;6.620;2024-01-30T08:57:07;19.50;;;11.75;;
20170;SDS011;10245;51.344;6.620;2024-01-30T08:59:30;16.77;;;11.35;;
20170;SDS011;10245;51.344;6.620;2024-01-30T09:01:55;17.48;;;11.27;;
20170;SDS011;10245;51.344;6.620;2024-01-30T09:04:32;21.27;;;12.82;;
20170;SDS011;10245;51.344;6.620;2024-01-30T09:06:57;15.75;;;11.20;;
20170;SDS011;10245;51.344;6.620;2024-01-30T09:09:21;18.15;;;12.32;;
20170;SDS011;10245;51.344;6.620;2024-01-30T09:11:45;18.25;;;12.40;;
20170;SDS011;10245;51.344;6.620;2024-01-30T09:14:08;18.77;;;12.80;;
20170;SDS011;10245;51.344;6.620;2024-01-30T09:16:32;16.50;;;12.65;;
20170;SDS011;10245;51.344;6.620;2024-01-30T09:18:55;16.45;;;12.70;;
20170;SDS011;10245;51.344;6.620;2024-01-30T09:21:19;18.05;;;12.50;;
20170;SDS011;10245;51.344;6.620;2024-01-30T09:23:43;22.60;;;13.05;;
20170;SDS011;10245;51.344;6.620;2024-01-30T09:26:07;21.20;;;12.20;;
20170;SDS011;10245;51.344;6.620;2024-01-30T09:28:30;21.55;;;12.65;;
20170;SDS011;10245;51.344;6.620;2024-01-30T09:30:54;22.33;;;12.70;;
20170;SDS011;10245;51.344;6.620;2024-01-30T09:33:18;20.60;;;13.18;;
20170;SDS011;10245;51.344;6.620;2024-01-30T09:35:41;17.13;;;12.15;;
20170;SDS011;10245;51.344;6.620;2024-01-30T09:38:04;20.17;;;12.35;;
20170;SDS011;10245;51.344;6.620;2024-01-30T09:40:31;17.58;;;11.13;;
20170;SDS011;10245;51.344;6.620;2024-01-30T09:42:55;14.43;;;11.52;;
20170;SDS011;10245;51.344;6.620;2024-01-30T09:45:19;17.02;;;12.07;;
20170;SDS011;10245;51.344;6.620;2024-01-30T09:47:46;19.10;;;11.95;;
20170;SDS011;10245;51.344;6.620;2024-01-30T09:50:10;15.80;;;11.73;;
20170;SDS011;10245;51.344;6.620;2024-01-30T09:52:34;20.63;;;12.23;;
20170;SDS011;10245;51.344;6.620;2024-01-30T09:54:59;22.02;;;12.50;;
20170;SDS011;10245;51.344;6.620;2024-01-30T09:57:25;17.25;;;12.25;;
20170;SDS011;10245;51.344;6.620;2024-01-30T09:59:48;20.73;;;12.23;;
20170;SDS011;10245;51.344;6.620;2024-01-30T10:02:16;22.60;;;12.50;;
20170;SDS011;10245;51.344;6.620;2024-01-30T10:04:40;19.35;;;11.18;;
20170;SDS011;10245;51.344;6.620;2024-01-30T10:07:04;17.95;;;11.65;;
20170;SDS011;10245;51.344;6.620;2024-01-30T10:09:27;18.88;;;11.98;;
20170;SDS011;10245;51.344;6.620;2024-01-30T10:11:54;21.92;;;11.77;;
20170;SDS011;10245;51.344;6.620;2024-01-30T10:14:19;17.58;;;11.45;;
20170;SDS011;10245;51.344;6.620;2024-01-30T10:16:43;20.40;;;10.98;;
20170;SDS011;10245;51.344;6.620;2024-01-30T10:19:08;20.42;;;11.45;;
20170;SDS011;10245;51.344;6.620;2024-01-30T10:21:32;18.35;;;11.05;;
20170;SDS011;10245;51.344;6.620;2024-01-30T10:23:55;15.20;;;11.63;;
20170;SDS011;10245;51.344;6.620;2024-01-30T10:26:19;15.07;;;10.95;;
20170;SDS011;10245;51.344;6.620;2024-01-30T10:28:43;19.38;;;11.23;;
20170;SDS011;10245;51.344;6.620;2024-01-30T10:31:10;15.77;;;10.52;;
20170;SDS011;10245;51.344;6.620;2024-01-30T10:33:39;15.65;;;10.65;;
20170;SDS011;10245;51.344;6.620;2024-01-30T10:36:03;14.27;;;9.73;;
20170;SDS011;10245;51.344;6.620;2024-01-30T10:38:28;15.75;;;10.65;;
20170;SDS011;10245;51.344;6.620;2024-01-30T10:40:53;16.15;;;10.10;;
20170;SDS011;10245;51.344;6.620;2024-01-30T10:43:20;18.73;;;11.35;;
20170;SDS011;10245;51.344;6.620;2024-01-30T10:45:45;17.83;;;10.25;;
20170;SDS011;10245;51.344;6.620;2024-01-30T10:48:13;18.10;;;11.18;;
20170;SDS011;10245;51.344;6.620;2024-01-30T10:50:41;17.55;;;10.93;;
20170;SDS011;10245;51.344;6.620;2024-01-30T10:53:14;16.20;;;10.18;;
20170;SDS011;10245;51.344;6.620;2024-01-30T10:55:40;14.85;;;10.13;;
20170;SDS011;10245;51.344;6.620;2024-01-30T10:58:05;14.98;;;11.00;;
20170;SDS011;10245;51.344;6.620;2024-01-30T11:00:28;15.75;;;11.50;;
20170;SDS011;10245;51.344;6.620;2024-01-30T11:02:55;15.27;;;10.70;;
20170;SDS011;10245;51.344;6.620;2024-01-30T11:05:24;17.05;;;10.93;;
20170;SDS011;10245;51.344;6.620;2024-01-30T11:07:54;16.77;;;10.80;;
20170;SDS011;10245;51.344;6.620;2024-01-30T11:10:17;18.55;;;10.85;;
20170;SDS011;10245;51.344;6.620;2024-01-30T11:12:41;15.10;;;10.52;;
20170;SDS011;10245;51.344;6.620;2024-01-30T11:15:07;17.83;;;10.68;;
20170;SDS011;10245;51.344;6.620;2024-01-30T11:17:44;14.90;;;9.68;;
20170;SDS011;10245;51.344;6.620;2024-01-30T11:20:14;15.48;;;10.88;;
20170;SDS011;10245;51.344;6.620;2024-01-30T11:22:46;19.13;;;10.90;;
20170;SDS011;10245;51.344;6.620;2024-01-30T11:25:13;16.77;;;11.23;;
20170;SDS011;10245;51.344;6.620;2024-01-30T11:27:38;15.95;;;11.70;;
20170;SDS011;10245;51.344;6.620;2024-01-30T11:30:02;18.45;;;10.93;;
20170;SDS011;10245;51.344;6.620;2024-01-30T11:32:26;17.35;;;11.13;;
20170;SDS011;10245;51.344;6.620;2024-01-30T11:34:50;16.27;;;10.52;;
20170;SDS011;10245;51.344;6.620;2024-01-30T11:37:13;17.05;;;10.75;;
20170;SDS011;10245;51.344;6.620;2024-01-30T11:39:40;16.90;;;11.02;;
20170;SDS011;10245;51.344;6.620;2024-01-30T11:42:06;17.25;;;10.38;;
20170;SDS011;10245;51.344;6.620;2024-01-30T11:44:31;18.67;;;10.27;;
20170;SDS011;10245;51.344;6.620;2024-01-30T11:46:54;17.00;;;10.20;;
20170;SDS011;10245;51.344;6.620;2024-01-30T11:49:18;15.23;;;10.32;;
20170;SDS011;10245;51.344;6.620;2024-01-30T11:51:42;14.20;;;9.95;;
20170;SDS011;10245;51.344;6.620;2024-01-30T11:54:07;14.77;;;9.60;;
20170;SDS011;10245;51.344;6.620;2024-01-30T11:56:31;12.32;;;9.93;;
20170;SDS011;10245;51.344;6.620;2024-01-30T11:58:54;17.27;;;9.82;;
20170;SDS011;10245;51.344;6.620;2024-01-30T12:01:18;16.77;;;9.93;;
20170;SDS011;10245;51.344;6.620;2024-01-30T12:03:41;16.73;;;9.98;;
20170;SDS011;10245;51.344;6.620;2024-01-30T12:06:05;19.98;;;10.45;;
20170;SDS011;10245;51.344;6.620;2024-01-30T12:08:29;14.88;;;10.10;;
20170;SDS011;10245;51.344;6.620;2024-01-30T12:10:55;17.58;;;10.23;;
20170;SDS011;10245;51.344;6.620;2024-01-30T12:13:21;15.55;;;9.98;;
20170;SDS011;10245;51.344;6.620;2024-01-30T12:15:45;14.55;;;8.73;;
20170;SDS011;10245;51.344;6.620;2024-01-30T12:18:08;18.25;;;9.75;;
20170;SDS011;10245;51.344;6.620;2024-01-30T12:20:32;15.77;;;9.30;;
20170;SDS011;10245;51.344;6.620;2024-01-30T12:22:56;17.98;;;10.05;;
20170;SDS011;10245;51.344;6.620;2024-01-30T12:25:20;18.15;;;9.25;;
20170;SDS011;10245;51.344;6.620;2024-01-30T12:27:45;17.42;;;10.18;;
20170;SDS011;10245;51.344;6.620;2024-01-30T12:30:13;16.45;;;9.85;;
20170;SDS011;10245;51.344;6.620;2024-01-30T12:32:37;19.08;;;9.98;;
20170;SDS011;10245;51.344;6.620;2024-01-30T12:35:02;18.42;;;10.15;;
20170;SDS011;10245;51.344;6.620;2024-01-30T12:37:26;18.88;;;10.32;;
20170;SDS011;10245;51.344;6.620;2024-01-30T12:39:51;15.10;;;9.15;;
20170;SDS011;10245;51.344;6.620;2024-01-30T12:42:16;15.80;;;9.10;;
20170;SDS011;10245;51.344;6.620;2024-01-30T12:44:39;20.50;;;9.48;;
20170;SDS011;10245;51.344;6.620;2024-01-30T12:47:08;19.63;;;9.25;;
20170;SDS011;10245;51.344;6.620;2024-01-30T12:49:32;15.55;;;8.60;;
20170;SDS011;10245;51.344;6.620;2024-01-30T12:51:55;16.98;;;8.98;;
20170;SDS011;10245;51.344;6.620;2024-01-30T12:54:20;14.77;;;8.50;;
20170;SDS011;10245;51.344;6.620;2024-01-30T12:56:45;18.63;;;8.38;;
20170;SDS011;10245;51.344;6.620;2024-01-30T12:59:08;13.10;;;8.52;;
20170;SDS011;10245;51.344;6.620;2024-01-30T13:01:32;13.13;;;7.95;;
20170;SDS011;10245;51.344;6.620;2024-01-30T13:03:56;13.07;;;8.18;;
20170;SDS011;10245;51.344;6.620;2024-01-30T13:06:20;10.93;;;7.82;;
20170;SDS011;10245;51.344;6.620;2024-01-30T13:08:43;16.92;;;8.93;;
20170;SDS011;10245;51.344;6.620;2024-01-30T13:11:07;12.27;;;8.23;;
20170;SDS011;10245;51.344;6.620;2024-01-30T13:13:41;18.60;;;8.75;;
20170;SDS011;10245;51.344;6.620;2024-01-30T13:16:05;17.20;;;9.32;;
20170;SDS011;10245;51.344;6.620;2024-01-30T13:18:29;12.27;;;8.18;;
20170;SDS011;10245;51.344;6.620;2024-01-30T13:20:54;16.52;;;8.55;;
20170;SDS011;10245;51.344;6.620;2024-01-30T13:23:17;14.02;;;8.20;;
20170;SDS011;10245;51.344;6.620;2024-01-30T13:25:40;16.38;;;8.32;;
20170;SDS011;10245;51.344;6.620;2024-01-30T13:28:04;15.80;;;8.25;;
20170;SDS011;10245;51.344;6.620;2024-01-30T13:30:27;17.45;;;8.75;;
20170;SDS011;10245;51.344;6.620;2024-01-30T13:32:51;15.85;;;8.85;;
20170;SDS011;10245;51.344;6.620;2024-01-30T13:35:15;15.85;;;8.45;;
20170;SDS011;10245;51.344;6.620;2024-01-30T13:37:40;13.20;;;8.07;;
20170;SDS011;10245;51.344;6.620;2024-01-30T13:40:04;16.65;;;9.27;;
20170;SDS011;10245;51.344;6.620;2024-01-30T13:42:34;17.70;;;9.43;;
20170;SDS011;10245;51.344;6.620;2024-01-30T13:44:57;18.58;;;8.73;;
20170;SDS011;10245;51.344;6.620;2024-01-30T13:47:21;14.75;;;8.38;;
20170;SDS011;10245;51.344;6.620;2024-01-30T13:49:44;13.10;;;8.52;;
20170;SDS011;10245;51.344;6.620;2024-01-30T13:52:08;16.25;;;9.23;;
20170;SDS011;10245;51.344;6.620;2024-01-30T13:54:33;14.05;;;8.73;;
20170;SDS011;10245;51.344;6.620;2024-01-30T13:56:57;17.42;;;8.45;;
20170;SDS011;10245;51.344;6.620;2024-01-30T13:59:20;17.60;;;8.70;;
20170;SDS011;10245;51.344;6.620;2024-01-30T14:01:45;15.20;;;8.68;;
20170;SDS011;10245;51.344;6.620;2024-01-30T14:04:12;11.50;;;8.20;;
20170;SDS011;10245;51.344;6.620;2024-01-30T14:06:36;15.63;;;8.20;;